sensor_id;sensor_type;location;lat;lon;timestamp;temperature;humidity
17992;DHT22;9121;50.926;5.340;2023-02-23T00:01:18;9.70;99.90
17992;DHT22;9121;50.926;5.340;2023-02-23T00:03:47;9.70;99.90
17992;DHT22;9121;50.926;5.340;2023-02-23T00:06:15;9.60;99.90
17992;DHT22;9121;50.926;5.340;2023-02-23T00:08:43;9.60;99.90
17992;DHT22;9121;50.926;5.340;2023-02-23T00:11:14;9.50;99.90
17992;DHT22;9121;50.926;5.340;2023-02-23T00:13:43;9.60;99.90
17992;DHT22;9121;50.926;5.340;2023-02-23T00:16:13;9.50;99.90
17992;DHT22;9121;50.926;5.340;2023-02-23T00:18:42;9.50;99.90
17992;DHT22;9121;50.926;5.340;2023-02-23T00:21:14;9.50;99.90
17992;DHT22;9121;50.926;5.340;2023-02-23T00:23:42;9.50;99.90
17992;DHT22;9121;50.926;5.340;2023-02-23T00:26:10;9.50;99.90
17992;DHT22;9121;50.926;5.340;2023-02-23T00:28:40;9.60;99.90
17992;DHT22;9121;50.926;5.340;2023-02-23T00:31:09;9.60;99.90
17992;DHT22;9121;50.926;5.340;2023-02-23T00:33:37;9.60;99.90
17992;DHT22;9121;50.926;5.340;2023-02-23T00:36:05;9.50;99.90
17992;DHT22;9121;50.926;5.340;2023-02-23T00:38:34;9.50;99.90
17992;DHT22;9121;50.926;5.340;2023-02-23T00:41:04;9.60;99.90
17992;DHT22;9121;50.926;5.340;2023-02-23T00:43:33;9.50;99.90
17992;DHT22;9121;50.926;5.340;2023-02-23T00:46:02;9.50;99.90
17992;DHT22;9121;50.926;5.340;2023-02-23T00:48:31;9.50;99.90
17992;DHT22;9121;50.926;5.340;2023-02-23T00:50:59;9.60;99.90
17992;DHT22;9121;50.926;5.340;2023-02-23T00:53:26;9.50;99.90
17992;DHT22;9121;50.926;5.340;2023-02-23T00:55:54;9.60;99.90
17992;DHT22;9121;50.926;5.340;2023-02-23T00:58:22;9.60;99.90
17992;DHT22;9121;50.926;5.340;2023-02-23T01:00:49;9.60;99.90
17992;DHT22;9121;50.926;5.340;2023-02-23T01:03:17;9.60;99.90
17992;DHT22;9121;50.926;5.340;2023-02-23T01:05:45;9.50;99.90
17992;DHT22;9121;50.926;5.340;2023-02-23T01:08:14;9.60;99.90
17992;DHT22;9121;50.926;5.340;2023-02-23T01:10:42;9.50;99.90
17992;DHT22;9121;50.926;5.340;2023-02-23T01:13:11;9.50;99.90
17992;DHT22;9121;50.926;5.340;2023-02-23T01:15:41;9.50;99.90
17992;DHT22;9121;50.926;5.340;2023-02-23T01:18:09;9.50;99.90
17992;DHT22;9121;50.926;5.340;2023-02-23T01:20:37;9.40;99.90
17992;DHT22;9121;50.926;5.340;2023-02-23T01:23:06;9.50;99.90
17992;DHT22;9121;50.926;5.340;2023-02-23T01:25:34;9.50;99.90
17992;DHT22;9121;50.926;5.340;2023-02-23T01:28:01;9.50;99.90
17992;DHT22;9121;50.926;5.340;2023-02-23T01:30:28;9.50;99.90
17992;DHT22;9121;50.926;5.340;2023-02-23T01:32:55;9.50;99.90
17992;DHT22;9121;50.926;5.340;2023-02-23T01:35:22;9.50;99.90
17992;DHT22;9121;50.926;5.340;2023-02-23T01:37:51;9.50;99.90
17992;DHT22;9121;50.926;5.340;2023-02-23T01:40:19;9.50;99.90
17992;DHT22;9121;50.926;5.340;2023-02-23T01:42:56;9.50;99.90
17992;DHT22;9121;50.926;5.340;2023-02-23T01:45:28;9.50;99.90
17992;DHT22;9121;50.926;5.340;2023-02-23T01:47:57;9.50;99.90
17992;DHT22;9121;50.926;5.340;2023-02-23T01:50:30;9.60;99.90
17992;DHT22;9121;50.926;5.340;2023-02-23T01:52:59;9.60;99.90
17992;DHT22;9121;50.926;5.340;2023-02-23T01:55:26;9.50;99.90
17992;DHT22;9121;50.926;5.340;2023-02-23T01:57:58;9.50;99.90
17992;DHT22;9121;50.926;5.340;2023-02-23T02:00:27;9.50;99.90
17992;DHT22;9121;50.926;5.340;2023-02-23T02:02:57;9.50;99.90
17992;DHT22;9121;50.926;5.340;2023-02-23T02:05:26;9.50;99.90
17992;DHT22;9121;50.926;5.340;2023-02-23T02:07:54;9.60;99.90
17992;DHT22;9121;50.926;5.340;2023-02-23T02:10:26;9.60;99.90
17992;DHT22;9121;50.926;5.340;2023-02-23T02:13:07;9.50;99.90
17992;DHT22;9121;50.926;5.340;2023-02-23T02:15:47;9.50;99.90
17992;DHT22;9121;50.926;5.340;2023-02-23T02:18:26;9.50;99.90
17992;DHT22;9121;50.926;5.340;2023-02-23T02:21:18;9.50;99.90
17992;DHT22;9121;50.926;5.340;2023-02-23T02:27:03;9.50;99.90
17992;DHT22;9121;50.926;5.340;2023-02-23T02:30:10;9.50;99.90
17992;DHT22;9121;50.926;5.340;2023-02-23T02:36:18;9.40;99.90
17992;DHT22;9121;50.926;5.340;2023-02-23T02:38:54;9.50;99.90
17992;DHT22;9121;50.926;5.340;2023-02-23T02:41:33;9.50;99.90
17992;DHT22;9121;50.926;5.340;2023-02-23T02:44:09;9.50;99.90
17992;DHT22;9121;50.926;5.340;2023-02-23T02:46:39;9.50;99.90
17992;DHT22;9121;50.926;5.340;2023-02-23T02:49:12;9.50;99.90
17992;DHT22;9121;50.926;5.340;2023-02-23T02:51:46;9.50;99.90
17992;DHT22;9121;50.926;5.340;2023-02-23T02:54:19;9.50;99.90
17992;DHT22;9121;50.926;5.340;2023-02-23T02:56:49;9.50;99.90
17992;DHT22;9121;50.926;5.340;2023-02-23T02:59:19;9.60;99.90
17992;DHT22;9121;50.926;5.340;2023-02-23T03:02:05;9.50;99.90
17992;DHT22;9121;50.926;5.340;2023-02-23T03:04:49;9.50;99.90
17992;DHT22;9121;50.926;5.340;2023-02-23T03:07:38;9.50;99.90
17992;DHT22;9121;50.926;5.340;2023-02-23T03:10:32;9.60;99.90
17992;DHT22;9121;50.926;5.340;2023-02-23T03:13:25;9.60;99.90
17992;DHT22;9121;50.926;5.340;2023-02-23T03:16:20;9.50;99.90
17992;DHT22;9121;50.926;5.340;2023-02-23T03:19:13;9.50;99.90
17992;DHT22;9121;50.926;5.340;2023-02-23T03:22:05;9.60;99.90
17992;DHT22;9121;50.926;5.340;2023-02-23T03:24:56;9.60;99.90
17992;DHT22;9121;50.926;5.340;2023-02-23T03:27:47;9.60;99.90
17992;DHT22;9121;50.926;5.340;2023-02-23T03:30:45;9.70;99.90
17992;DHT22;9121;50.926;5.340;2023-02-23T03:33:37;9.70;99.90
17992;DHT22;9121;50.926;5.340;2023-02-23T03:36:25;9.60;99.90
17992;DHT22;9121;50.926;5.340;2023-02-23T03:39:17;9.60;99.90
17992;DHT22;9121;50.926;5.340;2023-02-23T03:42:07;9.60;99.90
17992;DHT22;9121;50.926;5.340;2023-02-23T03:44:55;9.60;99.90
17992;DHT22;9121;50.926;5.340;2023-02-23T03:47:41;9.60;99.90
17992;DHT22;9121;50.926;5.340;2023-02-23T03:50:29;9.50;99.90
17992;DHT22;9121;50.926;5.340;2023-02-23T03:53:17;9.60;99.90
17992;DHT22;9121;50.926;5.340;2023-02-23T03:56:03;9.70;99.90
17992;DHT22;9121;50.926;5.340;2023-02-23T03:58:52;9.70;99.90
17992;DHT22;9121;50.926;5.340;2023-02-23T04:01:39;9.70;99.90
17992;DHT22;9121;50.926;5.340;2023-02-23T04:04:26;9.80;99.90
17992;DHT22;9121;50.926;5.340;2023-02-23T04:07:15;9.70;99.90
17992;DHT22;9121;50.926;5.340;2023-02-23T04:10:01;9.80;99.90
17992;DHT22;9121;50.926;5.340;2023-02-23T04:12:50;9.70;99.90
17992;DHT22;9121;50.926;5.340;2023-02-23T04:15:38;9.60;99.90
17992;DHT22;9121;50.926;5.340;2023-02-23T04:18:10;9.70;99.90
17992;DHT22;9121;50.926;5.340;2023-02-23T04:20:38;9.70;99.90
17992;DHT22;9121;50.926;5.340;2023-02-23T04:23:05;9.70;99.90
17992;DHT22;9121;50.926;5.340;2023-02-23T04:25:31;9.70;99.90
17992;DHT22;9121;50.926;5.340;2023-02-23T04:27:58;9.70;99.90
17992;DHT22;9121;50.926;5.340;2023-02-23T04:30:25;9.60;99.90
17992;DHT22;9121;50.926;5.340;2023-02-23T04:32:52;9.60;99.90
17992;DHT22;9121;50.926;5.340;2023-02-23T04:35:21;9.60;99.90
17992;DHT22;9121;50.926;5.340;2023-02-23T04:37:48;9.60;99.90
17992;DHT22;9121;50.926;5.340;2023-02-23T04:40:15;9.50;99.90
17992;DHT22;9121;50.926;5.340;2023-02-23T04:42:42;9.50;99.90
17992;DHT22;9121;50.926;5.340;2023-02-23T04:45:10;9.50;99.90
17992;DHT22;9121;50.926;5.340;2023-02-23T04:47:37;9.60;99.90
17992;DHT22;9121;50.926;5.340;2023-02-23T04:50:05;9.70;99.90
17992;DHT22;9121;50.926;5.340;2023-02-23T04:52:33;9.60;99.90
17992;DHT22;9121;50.926;5.340;2023-02-23T04:55:02;9.60;99.90
17992;DHT22;9121;50.926;5.340;2023-02-23T04:57:29;9.50;99.90
17992;DHT22;9121;50.926;5.340;2023-02-23T04:59:56;9.60;99.90
17992;DHT22;9121;50.926;5.340;2023-02-23T05:02:23;9.60;99.90
17992;DHT22;9121;50.926;5.340;2023-02-23T05:04:50;9.60;99.90
17992;DHT22;9121;50.926;5.340;2023-02-23T05:07:17;9.60;99.90
17992;DHT22;9121;50.926;5.340;2023-02-23T05:09:45;9.60;99.90
17992;DHT22;9121;50.926;5.340;2023-02-23T05:12:12;9.50;99.90
17992;DHT22;9121;50.926;5.340;2023-02-23T05:14:39;9.50;99.90
17992;DHT22;9121;50.926;5.340;2023-02-23T05:17:07;9.50;99.90
17992;DHT22;9121;50.926;5.340;2023-02-23T05:19:34;9.50;99.90
17992;DHT22;9121;50.926;5.340;2023-02-23T05:22:01;9.40;99.90
17992;DHT22;9121;50.926;5.340;2023-02-23T05:24:27;9.50;99.90
17992;DHT22;9121;50.926;5.340;2023-02-23T05:26:56;9.50;99.90
17992;DHT22;9121;50.926;5.340;2023-02-23T05:29:23;9.50;99.90
17992;DHT22;9121;50.926;5.340;2023-02-23T05:31:50;9.50;99.90
17992;DHT22;9121;50.926;5.340;2023-02-23T05:34:17;9.60;99.90
17992;DHT22;9121;50.926;5.340;2023-02-23T05:36:44;9.60;99.90
17992;DHT22;9121;50.926;5.340;2023-02-23T05:39:11;9.70;99.90
17992;DHT22;9121;50.926;5.340;2023-02-23T05:41:38;9.70;99.90
17992;DHT22;9121;50.926;5.340;2023-02-23T05:44:06;9.70;99.90
17992;DHT22;9121;50.926;5.340;2023-02-23T05:46:33;9.60;99.90
17992;DHT22;9121;50.926;5.340;2023-02-23T05:49:01;9.60;99.90
17992;DHT22;9121;50.926;5.340;2023-02-23T05:51:29;9.60;99.90
17992;DHT22;9121;50.926;5.340;2023-02-23T05:53:56;9.60;99.90
17992;DHT22;9121;50.926;5.340;2023-02-23T05:56:23;9.70;99.90
17992;DHT22;9121;50.926;5.340;2023-02-23T05:58:51;9.70;99.90
17992;DHT22;9121;50.926;5.340;2023-02-23T06:01:21;9.60;99.90
17992;DHT22;9121;50.926;5.340;2023-02-23T06:03:49;9.60;99.90
17992;DHT22;9121;50.926;5.340;2023-02-23T06:06:16;9.70;99.90
17992;DHT22;9121;50.926;5.340;2023-02-23T06:08:44;9.70;99.90
17992;DHT22;9121;50.926;5.340;2023-02-23T06:11:11;9.70;99.90
17992;DHT22;9121;50.926;5.340;2023-02-23T06:13:38;9.60;99.90
17992;DHT22;9121;50.926;5.340;2023-02-23T06:16:06;9.60;99.90
17992;DHT22;9121;50.926;5.340;2023-02-23T06:18:35;9.60;99.90
17992;DHT22;9121;50.926;5.340;2023-02-23T06:21:02;9.60;99.90
17992;DHT22;9121;50.926;5.340;2023-02-23T06:23:30;9.60;99.90
17992;DHT22;9121;50.926;5.340;2023-02-23T06:25:57;9.50;99.90
17992;DHT22;9121;50.926;5.340;2023-02-23T06:28:25;9.50;99.90
17992;DHT22;9121;50.926;5.340;2023-02-23T06:30:53;9.60;99.90
17992;DHT22;9121;50.926;5.340;2023-02-23T06:33:21;9.70;99.90
17992;DHT22;9121;50.926;5.340;2023-02-23T06:35:50;9.70;99.90
17992;DHT22;9121;50.926;5.340;2023-02-23T06:38:17;9.60;99.90
17992;DHT22;9121;50.926;5.340;2023-02-23T06:40:45;9.70;99.90
17992;DHT22;9121;50.926;5.340;2023-02-23T06:43:12;9.60;99.90
17992;DHT22;9121;50.926;5.340;2023-02-23T06:45:38;9.50;99.90
17992;DHT22;9121;50.926;5.340;2023-02-23T06:48:05;9.50;99.90
17992;DHT22;9121;50.926;5.340;2023-02-23T06:50:33;9.60;99.90
17992;DHT22;9121;50.926;5.340;2023-02-23T06:53:01;9.50;99.90
17992;DHT22;9121;50.926;5.340;2023-02-23T06:55:31;9.50;99.90
17992;DHT22;9121;50.926;5.340;2023-02-23T06:57:58;9.60;99.90
17992;DHT22;9121;50.926;5.340;2023-02-23T07:00:25;9.60;99.90
17992;DHT22;9121;50.926;5.340;2023-02-23T07:02:52;9.50;99.90
17992;DHT22;9121;50.926;5.340;2023-02-23T07:05:19;9.50;99.90
17992;DHT22;9121;50.926;5.340;2023-02-23T07:07:46;9.40;99.90
17992;DHT22;9121;50.926;5.340;2023-02-23T07:10:14;9.50;99.90
17992;DHT22;9121;50.926;5.340;2023-02-23T07:12:41;9.50;99.90
17992;DHT22;9121;50.926;5.340;2023-02-23T07:15:10;9.50;99.90
17992;DHT22;9121;50.926;5.340;2023-02-23T07:17:37;9.50;99.90
17992;DHT22;9121;50.926;5.340;2023-02-23T07:20:05;9.40;99.90
17992;DHT22;9121;50.926;5.340;2023-02-23T07:22:32;9.40;99.90
17992;DHT22;9121;50.926;5.340;2023-02-23T07:24:59;9.30;99.90
17992;DHT22;9121;50.926;5.340;2023-02-23T07:27:27;9.40;99.90
17992;DHT22;9121;50.926;5.340;2023-02-23T07:29:54;9.30;99.90
17992;DHT22;9121;50.926;5.340;2023-02-23T07:32:21;9.40;99.90
17992;DHT22;9121;50.926;5.340;2023-02-23T07:34:48;9.30;99.90
17992;DHT22;9121;50.926;5.340;2023-02-23T07:37:15;9.40;99.90
17992;DHT22;9121;50.926;5.340;2023-02-23T07:39:42;9.40;99.90
17992;DHT22;9121;50.926;5.340;2023-02-23T07:42:09;9.60;99.90
17992;DHT22;9121;50.926;5.340;2023-02-23T07:44:38;9.60;99.90
17992;DHT22;9121;50.926;5.340;2023-02-23T07:47:05;9.50;99.90
17992;DHT22;9121;50.926;5.340;2023-02-23T07:49:32;9.60;99.90
17992;DHT22;9121;50.926;5.340;2023-02-23T07:52:00;9.40;99.90
17992;DHT22;9121;50.926;5.340;2023-02-23T07:54:27;9.40;99.90
17992;DHT22;9121;50.926;5.340;2023-02-23T07:56:55;9.50;99.90
17992;DHT22;9121;50.926;5.340;2023-02-23T07:59:22;9.50;99.90
17992;DHT22;9121;50.926;5.340;2023-02-23T08:01:50;9.50;99.90
17992;DHT22;9121;50.926;5.340;2023-02-23T08:04:17;9.50;99.90
17992;DHT22;9121;50.926;5.340;2023-02-23T08:06:44;9.60;99.90
17992;DHT22;9121;50.926;5.340;2023-02-23T08:09:11;9.60;99.90
17992;DHT22;9121;50.926;5.340;2023-02-23T08:11:38;9.60;99.90
17992;DHT22;9121;50.926;5.340;2023-02-23T08:14:05;9.60;99.90
17992;DHT22;9121;50.926;5.340;2023-02-23T08:16:32;9.50;99.90
17992;DHT22;9121;50.926;5.340;2023-02-23T08:19:01;9.60;99.90
17992;DHT22;9121;50.926;5.340;2023-02-23T08:21:30;9.60;99.90
17992;DHT22;9121;50.926;5.340;2023-02-23T08:23:57;9.60;99.90
17992;DHT22;9121;50.926;5.340;2023-02-23T08:26:25;9.70;99.90
17992;DHT22;9121;50.926;5.340;2023-02-23T08:28:52;9.70;99.90
17992;DHT22;9121;50.926;5.340;2023-02-23T08:31:19;9.70;99.90
17992;DHT22;9121;50.926;5.340;2023-02-23T08:33:48;9.60;99.90
17992;DHT22;9121;50.926;5.340;2023-02-23T08:36:17;9.60;99.90
17992;DHT22;9121;50.926;5.340;2023-02-23T08:38:45;9.60;99.90
17992;DHT22;9121;50.926;5.340;2023-02-23T08:41:12;9.60;99.90
17992;DHT22;9121;50.926;5.340;2023-02-23T08:43:40;9.60;99.90
17992;DHT22;9121;50.926;5.340;2023-02-23T08:46:07;9.60;99.90
17992;DHT22;9121;50.926;5.340;2023-02-23T08:48:34;9.60;99.90
17992;DHT22;9121;50.926;5.340;2023-02-23T08:51:04;9.60;99.90
17992;DHT22;9121;50.926;5.340;2023-02-23T08:53:32;9.70;99.90
17992;DHT22;9121;50.926;5.340;2023-02-23T08:56:01;9.70;99.90
17992;DHT22;9121;50.926;5.340;2023-02-23T08:58:29;9.90;99.90
17992;DHT22;9121;50.926;5.340;2023-02-23T09:00:56;9.90;99.90
17992;DHT22;9121;50.926;5.340;2023-02-23T09:03:25;9.80;99.90
17992;DHT22;9121;50.926;5.340;2023-02-23T09:05:53;9.90;99.90
17992;DHT22;9121;50.926;5.340;2023-02-23T09:08:21;9.90;99.90
17992;DHT22;9121;50.926;5.340;2023-02-23T09:10:50;10.00;99.90
17992;DHT22;9121;50.926;5.340;2023-02-23T09:13:18;9.90;99.90
17992;DHT22;9121;50.926;5.340;2023-02-23T09:15:45;9.90;99.90
17992;DHT22;9121;50.926;5.340;2023-02-23T09:18:13;10.00;99.90
17992;DHT22;9121;50.926;5.340;2023-02-23T09:20:40;10.00;99.90
17992;DHT22;9121;50.926;5.340;2023-02-23T09:23:08;10.10;99.90
17992;DHT22;9121;50.926;5.340;2023-02-23T09:25:39;10.10;99.90
17992;DHT22;9121;50.926;5.340;2023-02-23T09:28:10;10.20;99.90
17992;DHT22;9121;50.926;5.340;2023-02-23T09:30:38;10.30;99.90
17992;DHT22;9121;50.926;5.340;2023-02-23T09:33:06;10.40;99.90
17992;DHT22;9121;50.926;5.340;2023-02-23T09:35:34;10.50;99.90
17992;DHT22;9121;50.926;5.340;2023-02-23T09:38:03;10.50;99.90
17992;DHT22;9121;50.926;5.340;2023-02-23T09:40:36;10.40;99.90
17992;DHT22;9121;50.926;5.340;2023-02-23T09:43:13;10.40;99.90
17992;DHT22;9121;50.926;5.340;2023-02-23T09:45:42;10.30;99.90
17992;DHT22;9121;50.926;5.340;2023-02-23T09:48:14;10.30;99.90
17992;DHT22;9121;50.926;5.340;2023-02-23T09:50:45;10.30;99.90
17992;DHT22;9121;50.926;5.340;2023-02-23T09:53:24;10.30;99.90
17992;DHT22;9121;50.926;5.340;2023-02-23T09:55:54;10.40;99.90
17992;DHT22;9121;50.926;5.340;2023-02-23T09:58:25;10.30;99.90
17992;DHT22;9121;50.926;5.340;2023-02-23T10:01:20;10.20;99.90
17992;DHT22;9121;50.926;5.340;2023-02-23T10:03:54;10.10;99.90
17992;DHT22;9121;50.926;5.340;2023-02-23T10:06:23;10.10;99.90
17992;DHT22;9121;50.926;5.340;2023-02-23T10:09:02;10.10;99.90
17992;DHT22;9121;50.926;5.340;2023-02-23T10:11:36;10.30;99.90
17992;DHT22;9121;50.926;5.340;2023-02-23T10:14:23;10.30;99.90
17992;DHT22;9121;50.926;5.340;2023-02-23T10:17:05;10.40;99.90
17992;DHT22;9121;50.926;5.340;2023-02-23T10:19:42;10.50;99.90
17992;DHT22;9121;50.926;5.340;2023-02-23T10:22:11;10.60;99.90
17992;DHT22;9121;50.926;5.340;2023-02-23T10:24:43;10.60;99.90
17992;DHT22;9121;50.926;5.340;2023-02-23T10:27:14;10.60;99.90
17992;DHT22;9121;50.926;5.340;2023-02-23T10:29:47;10.40;99.90
17992;DHT22;9121;50.926;5.340;2023-02-23T10:32:19;10.40;99.90
17992;DHT22;9121;50.926;5.340;2023-02-23T10:34:52;10.50;99.90
17992;DHT22;9121;50.926;5.340;2023-02-23T10:37:21;10.50;99.90
17992;DHT22;9121;50.926;5.340;2023-02-23T10:39:48;10.40;99.90
17992;DHT22;9121;50.926;5.340;2023-02-23T10:42:19;10.40;99.90
17992;DHT22;9121;50.926;5.340;2023-02-23T10:44:49;10.40;99.90
17992;DHT22;9121;50.926;5.340;2023-02-23T10:47:18;10.50;99.90
17992;DHT22;9121;50.926;5.340;2023-02-23T10:49:48;10.40;99.90
17992;DHT22;9121;50.926;5.340;2023-02-23T10:52:20;10.50;99.90
17992;DHT22;9121;50.926;5.340;2023-02-23T10:54:49;10.60;99.90
17992;DHT22;9121;50.926;5.340;2023-02-23T10:57:25;10.60;99.90
17992;DHT22;9121;50.926;5.340;2023-02-23T11:00:05;10.70;99.90
17992;DHT22;9121;50.926;5.340;2023-02-23T11:02:33;10.70;99.90
17992;DHT22;9121;50.926;5.340;2023-02-23T11:05:03;10.80;99.90
17992;DHT22;9121;50.926;5.340;2023-02-23T11:07:31;10.80;99.90
17992;DHT22;9121;50.926;5.340;2023-02-23T11:10:23;10.80;99.90
17992;DHT22;9121;50.926;5.340;2023-02-23T11:12:50;10.90;99.90
17992;DHT22;9121;50.926;5.340;2023-02-23T11:15:27;10.90;99.90
17992;DHT22;9121;50.926;5.340;2023-02-23T11:17:56;11.00;99.90
17992;DHT22;9121;50.926;5.340;2023-02-23T11:20:28;11.10;99.90
17992;DHT22;9121;50.926;5.340;2023-02-23T11:22:56;11.20;99.90
17992;DHT22;9121;50.926;5.340;2023-02-23T11:25:27;11.20;99.90
17992;DHT22;9121;50.926;5.340;2023-02-23T11:27:55;11.40;99.90
17992;DHT22;9121;50.926;5.340;2023-02-23T11:30:27;11.30;99.90
17992;DHT22;9121;50.926;5.340;2023-02-23T11:32:58;11.40;99.90
17992;DHT22;9121;50.926;5.340;2023-02-23T11:35:34;11.30;99.90
17992;DHT22;9121;50.926;5.340;2023-02-23T11:38:15;11.50;99.90
17992;DHT22;9121;50.926;5.340;2023-02-23T11:40:57;11.80;99.90
17992;DHT22;9121;50.926;5.340;2023-02-23T11:43:25;12.00;99.90
17992;DHT22;9121;50.926;5.340;2023-02-23T11:45:55;12.20;99.90
17992;DHT22;9121;50.926;5.340;2023-02-23T11:48:27;12.10;99.90
17992;DHT22;9121;50.926;5.340;2023-02-23T11:50:56;11.90;99.90
17992;DHT22;9121;50.926;5.340;2023-02-23T11:53:28;11.70;99.90
17992;DHT22;9121;50.926;5.340;2023-02-23T11:55:59;11.60;99.90
17992;DHT22;9121;50.926;5.340;2023-02-23T11:58:32;11.50;99.90
17992;DHT22;9121;50.926;5.340;2023-02-23T12:01:03;11.60;99.90
17992;DHT22;9121;50.926;5.340;2023-02-23T12:03:37;11.40;99.90
17992;DHT22;9121;50.926;5.340;2023-02-23T12:06:09;11.40;99.90
17992;DHT22;9121;50.926;5.340;2023-02-23T12:08:40;11.40;99.90
17992;DHT22;9121;50.926;5.340;2023-02-23T12:11:12;11.30;99.90
17992;DHT22;9121;50.926;5.340;2023-02-23T12:13:43;11.20;99.90
17992;DHT22;9121;50.926;5.340;2023-02-23T12:16:17;11.20;99.90
17992;DHT22;9121;50.926;5.340;2023-02-23T12:18:49;11.30;99.90
17992;DHT22;9121;50.926;5.340;2023-02-23T12:21:26;11.40;99.90
17992;DHT22;9121;50.926;5.340;2023-02-23T12:24:09;11.40;99.90
17992;DHT22;9121;50.926;5.340;2023-02-23T12:26:45;11.30;99.90
17992;DHT22;9121;50.926;5.340;2023-02-23T12:29:19;11.30;99.90
17992;DHT22;9121;50.926;5.340;2023-02-23T12:31:53;11.20;99.90
17992;DHT22;9121;50.926;5.340;2023-02-23T12:34:27;11.10;99.90
17992;DHT22;9121;50.926;5.340;2023-02-23T12:36:59;11.20;99.90
17992;DHT22;9121;50.926;5.340;2023-02-23T12:39:34;11.10;99.90
17992;DHT22;9121;50.926;5.340;2023-02-23T12:42:10;11.10;99.90
17992;DHT22;9121;50.926;5.340;2023-02-23T12:44:43;11.10;99.90
17992;DHT22;9121;50.926;5.340;2023-02-23T12:47:22;11.10;99.90
17992;DHT22;9121;50.926;5.340;2023-02-23T12:49:58;11.10;99.90
17992;DHT22;9121;50.926;5.340;2023-02-23T12:52:41;11.20;99.90
17992;DHT22;9121;50.926;5.340;2023-02-23T12:55:11;11.20;99.90
17992;DHT22;9121;50.926;5.340;2023-02-23T12:57:45;11.30;99.90
17992;DHT22;9121;50.926;5.340;2023-02-23T13:00:36;11.40;99.90
17992;DHT22;9121;50.926;5.340;2023-02-23T13:03:23;11.40;99.90
17992;DHT22;9121;50.926;5.340;2023-02-23T13:06:03;11.50;99.90
17992;DHT22;9121;50.926;5.340;2023-02-23T13:08:43;11.60;99.90
17992;DHT22;9121;50.926;5.340;2023-02-23T13:11:26;11.70;99.90
17992;DHT22;9121;50.926;5.340;2023-02-23T13:14:01;11.90;99.90
17992;DHT22;9121;50.926;5.340;2023-02-23T13:16:33;12.00;99.90
17992;DHT22;9121;50.926;5.340;2023-02-23T13:19:09;12.00;99.90
17992;DHT22;9121;50.926;5.340;2023-02-23T13:21:43;12.00;99.90
17992;DHT22;9121;50.926;5.340;2023-02-23T13:24:15;11.80;99.90
17992;DHT22;9121;50.926;5.340;2023-02-23T13:26:48;11.80;99.90
17992;DHT22;9121;50.926;5.340;2023-02-23T13:29:31;11.70;99.90
17992;DHT22;9121;50.926;5.340;2023-02-23T13:32:01;11.60;99.90
17992;DHT22;9121;50.926;5.340;2023-02-23T13:34:35;11.70;99.90
17992;DHT22;9121;50.926;5.340;2023-02-23T13:37:06;11.60;99.90
17992;DHT22;9121;50.926;5.340;2023-02-23T13:39:53;11.60;99.90
17992;DHT22;9121;50.926;5.340;2023-02-23T13:42:43;11.50;99.90
17992;DHT22;9121;50.926;5.340;2023-02-23T13:45:30;11.50;99.90
17992;DHT22;9121;50.926;5.340;2023-02-23T13:48:05;11.30;99.90
17992;DHT22;9121;50.926;5.340;2023-02-23T13:50:45;11.30;99.90
17992;DHT22;9121;50.926;5.340;2023-02-23T13:53:32;11.20;99.90
17992;DHT22;9121;50.926;5.340;2023-02-23T13:56:01;11.20;99.90
17992;DHT22;9121;50.926;5.340;2023-02-23T13:58:31;11.20;99.90
17992;DHT22;9121;50.926;5.340;2023-02-23T14:01:10;11.20;99.90
17992;DHT22;9121;50.926;5.340;2023-02-23T14:03:44;11.20;99.90
17992;DHT22;9121;50.926;5.340;2023-02-23T14:06:16;11.10;99.90
17992;DHT22;9121;50.926;5.340;2023-02-23T14:08:49;11.10;99.90
17992;DHT22;9121;50.926;5.340;2023-02-23T14:11:43;11.20;99.90
17992;DHT22;9121;50.926;5.340;2023-02-23T14:14:13;11.20;99.90
17992;DHT22;9121;50.926;5.340;2023-02-23T14:16:42;11.10;99.90
17992;DHT22;9121;50.926;5.340;2023-02-23T14:19:33;11.20;99.90
17992;DHT22;9121;50.926;5.340;2023-02-23T14:22:04;11.10;99.90
17992;DHT22;9121;50.926;5.340;2023-02-23T14:24:34;11.10;99.90
17992;DHT22;9121;50.926;5.340;2023-02-23T14:27:21;11.10;99.90
17992;DHT22;9121;50.926;5.340;2023-02-23T14:32:50;11.10;99.90
17992;DHT22;9121;50.926;5.340;2023-02-23T14:35:42;11.10;99.90
17992;DHT22;9121;50.926;5.340;2023-02-23T14:38:20;11.00;99.90
17992;DHT22;9121;50.926;5.340;2023-02-23T14:40:51;11.10;99.90
17992;DHT22;9121;50.926;5.340;2023-02-23T14:43:39;11.10;99.90
17992;DHT22;9121;50.926;5.340;2023-02-23T14:46:18;11.00;99.90
17992;DHT22;9121;50.926;5.340;2023-02-23T14:48:59;11.00;99.90
17992;DHT22;9121;50.926;5.340;2023-02-23T14:51:36;11.00;99.90
17992;DHT22;9121;50.926;5.340;2023-02-23T14:54:12;11.00;99.90
17992;DHT22;9121;50.926;5.340;2023-02-23T14:56:48;11.00;99.90
17992;DHT22;9121;50.926;5.340;2023-02-23T14:59:18;11.00;99.90
17992;DHT22;9121;50.926;5.340;2023-02-23T15:01:48;11.00;99.90
17992;DHT22;9121;50.926;5.340;2023-02-23T15:04:17;10.90;99.90
17992;DHT22;9121;50.926;5.340;2023-02-23T15:06:45;10.90;99.90
17992;DHT22;9121;50.926;5.340;2023-02-23T15:09:19;10.90;99.90
17992;DHT22;9121;50.926;5.340;2023-02-23T15:11:49;10.90;99.90
17992;DHT22;9121;50.926;5.340;2023-02-23T15:14:19;10.80;99.90
17992;DHT22;9121;50.926;5.340;2023-02-23T15:16:48;10.80;99.90
17992;DHT22;9121;50.926;5.340;2023-02-23T15:19:17;10.80;99.90
17992;DHT22;9121;50.926;5.340;2023-02-23T15:21:50;10.80;99.90
17992;DHT22;9121;50.926;5.340;2023-02-23T15:24:22;10.80;99.90
17992;DHT22;9121;50.926;5.340;2023-02-23T15:26:52;10.80;99.90
17992;DHT22;9121;50.926;5.340;2023-02-23T15:29:21;10.80;99.90
17992;DHT22;9121;50.926;5.340;2023-02-23T15:31:50;10.90;99.90
17992;DHT22;9121;50.926;5.340;2023-02-23T15:34:18;11.00;99.90
17992;DHT22;9121;50.926;5.340;2023-02-23T15:36:49;11.00;99.90
17992;DHT22;9121;50.926;5.340;2023-02-23T15:39:24;11.00;99.90
17992;DHT22;9121;50.926;5.340;2023-02-23T15:41:55;11.00;99.90
17992;DHT22;9121;50.926;5.340;2023-02-23T15:44:24;11.00;99.90
17992;DHT22;9121;50.926;5.340;2023-02-23T15:46:55;11.00;99.90
17992;DHT22;9121;50.926;5.340;2023-02-23T15:49:26;11.10;99.90
17992;DHT22;9121;50.926;5.340;2023-02-23T15:51:58;11.10;99.90
17992;DHT22;9121;50.926;5.340;2023-02-23T15:54:29;11.10;99.90
17992;DHT22;9121;50.926;5.340;2023-02-23T15:57:02;11.10;99.90
17992;DHT22;9121;50.926;5.340;2023-02-23T15:59:33;11.00;99.90
17992;DHT22;9121;50.926;5.340;2023-02-23T16:02:01;10.90;99.90
17992;DHT22;9121;50.926;5.340;2023-02-23T16:04:30;11.00;99.90
17992;DHT22;9121;50.926;5.340;2023-02-23T16:07:14;11.00;99.90
17992;DHT22;9121;50.926;5.340;2023-02-23T16:09:49;11.00;99.90
17992;DHT22;9121;50.926;5.340;2023-02-23T16:12:18;11.00;99.90
17992;DHT22;9121;50.926;5.340;2023-02-23T16:14:48;11.00;99.90
17992;DHT22;9121;50.926;5.340;2023-02-23T16:17:25;11.10;99.90
17992;DHT22;9121;50.926;5.340;2023-02-23T16:19:55;11.00;99.90
17992;DHT22;9121;50.926;5.340;2023-02-23T16:22:25;11.00;99.90
17992;DHT22;9121;50.926;5.340;2023-02-23T16:25:00;11.00;99.90
17992;DHT22;9121;50.926;5.340;2023-02-23T16:27:28;11.00;99.90
17992;DHT22;9121;50.926;5.340;2023-02-23T16:29:58;11.10;99.90
17992;DHT22;9121;50.926;5.340;2023-02-23T16:32:37;11.00;99.90
17992;DHT22;9121;50.926;5.340;2023-02-23T16:35:15;10.90;99.90
17992;DHT22;9121;50.926;5.340;2023-02-23T16:37:55;10.80;99.90